Time;durP1;ratioP1;P1;durP2;ratioP2;P2;SDS_P1;SDS_P2;PMS_P1;PMS_P2;Temp;Humidity;BMP_temperature;BMP_pressure;BME280_temperature;BME280_humidity;BME280_pressure;Samples;Min_cycle;Max_cycle;Signal;HPM_P1;HPM_P2
2022/09/06 00:03:57;;;;;;;9.45;5.45;;;;;;;12.02;78.09;99788.23;3936616;88;21651;-83
2022/09/06 00:09:59;;;;;;;11.93;5.55;;;;;;;12.02;77.33;99782.19;3974194;88;21072;-83
2022/09/06 00:16:07;;;;;;;11.80;5.45;;;;;;;11.93;77.90;99776.72;3966301;88;21045;-83
2022/09/06 00:22:08;;;;;;;12.75;5.20;;;;;;;11.89;77.73;99775.84;3945560;88;21028;-84
2022/09/06 00:28:10;;;;;;;11.57;5.45;;;;;;;11.76;78.03;99769.73;3986602;87;21076;-83
2022/09/06 00:34:11;;;;;;;8.63;4.60;;;;;;;;;;3981139;87;21123;-84
2022/09/06 00:40:13;;;;;;;9.73;4.65;;;;;;;11.61;78.15;99773.34;3968072;88;21613;-83
2022/09/06 00:46:20;;;;;;;8.28;4.35;;;;;;;11.46;78.42;99766.58;3974528;88;21420;-83
2022/09/06 00:52:23;;;;;;;13.38;4.62;;;;;;;11.41;78.60;99761.38;3962250;87;21092;-84
2022/09/06 00:58:25;;;;;;;10.43;4.65;;;;;;;11.27;78.15;99764.64;3950245;88;21590;-84
2022/09/06 01:04:27;;;;;;;8.38;4.35;;;;;;;11.28;78.84;99773.64;3979456;88;21129;-83
2022/09/06 01:11:09;;;;;;;10.82;4.60;;;;;;;11.25;78.50;99772.98;3978581;87;21083;-83
2022/09/06 01:17:29;;;;;;;8.75;4.85;;;;;;;11.12;78.55;99773.70;3945686;87;21109;-82
2022/09/06 01:24:11;;;;;;;9.73;5.25;;;;;;;11.09;78.54;99774.42;3962895;88;21114;-82
2022/09/06 01:30:16;;;;;;;10.18;4.28;;;;;;;11.05;78.79;99774.38;3965032;88;21569;-83
2022/09/06 01:36:23;;;;;;;8.08;3.52;;;;;;;11.01;78.67;99772.69;3949755;88;21052;-83
2022/09/06 01:42:29;;;;;;;8.18;4.22;;;;;;;10.96;78.56;99764.77;3973570;87;21084;-82
2022/09/06 01:55:44;;;;;;;;;;;;;;;10.96;78.85;99762.80;3979546;88;22167;-82
2022/09/06 02:02:28;;;;;;;6.45;3.87;;;;;;;10.87;79.38;99766.33;3967413;88;20905;-83
2022/09/06 02:08:43;;;;;;;6.87;3.40;;;;;;;10.77;78.93;99758.66;3957114;88;21103;-83
2022/09/06 02:15:08;;;;;;;8.10;3.92;;;;;;;10.72;79.00;99754.05;3974014;87;21622;-83
2022/09/06 02:21:13;;;;;;;13.78;4.37;;;;;;;10.63;79.17;99745.25;3973840;87;21158;-83
2022/09/06 02:27:15;;;;;;;7.65;3.60;;;;;;;10.57;79.51;99742.57;3977438;88;21163;-83
2022/09/06 02:33:20;;;;;;;11.45;4.25;;;;;;;10.50;80.07;99739.09;3978789;88;21020;-83
2022/09/06 02:39:21;;;;;;;8.53;4.20;;;;;;;10.46;80.27;99741.53;3976980;88;21043;-83
2022/09/06 02:45:23;;;;;;;7.15;4.03;;;;;;;10.44;80.30;99747.93;3974704;88;21092;-83
2022/09/06 02:51:25;;;;;;;8.65;4.05;;;;;;;10.34;80.47;99742.42;3974770;87;21185;-83
2022/09/06 02:57:26;;;;;;;7.33;3.52;;;;;;;10.23;80.73;99737.27;3876924;90;21083;-83
2022/09/06 03:03:27;;;;;;;6.97;3.77;;;;;;;10.21;80.91;99736.82;3966286;88;21081;-84
2022/09/06 03:09:30;;;;;;;6.47;3.00;;;;;;;10.24;81.03;99737.48;4000216;87;21158;-84
2022/09/06 03:15:32;;;;;;;9.50;3.17;;;;;;;10.38;81.63;99731.56;3971426;87;21085;-84
2022/09/06 03:21:33;;;;;;;13.25;3.90;;;;;;;10.36;81.26;99726.45;3966672;87;21442;-84
2022/09/06 03:27:35;;;;;;;9.23;3.95;;;;;;;10.22;80.95;99723.38;3962711;88;21071;-84
2022/09/06 03:33:37;;;;;;;6.85;3.58;;;;;;;10.06;81.39;99722.55;3969953;87;37966;-84
2022/09/06 03:39:38;;;;;;;7.97;3.62;;;;;;;9.99;81.51;99726.47;4015243;87;21660;-83
2022/09/06 03:45:47;;;;;;;7.00;3.60;;;;;;;9.89;81.61;99722.11;3982025;87;21038;-84
2022/09/06 03:51:48;;;;;;;7.90;3.75;;;;;;;9.84;82.16;99730.00;4001743;87;21061;-83
2022/09/06 03:57:49;;;;;;;8.08;4.12;;;;;;;9.80;82.11;99722.86;3986999;87;21091;-84
2022/09/06 04:03:51;;;;;;;11.03;3.77;;;;;;;9.66;82.15;99725.23;4005317;87;21513;-85
2022/09/06 04:09:52;;;;;;;5.58;3.30;;;;;;;9.64;82.59;99717.95;4018445;87;21008;-83
2022/09/06 04:15:54;;;;;;;7.80;3.33;;;;;;;9.62;82.50;99719.66;4010182;87;21037;-84
2022/09/06 04:21:55;;;;;;;8.65;2.95;;;;;;;9.63;82.71;99718.54;3991493;87;21149;-83
2022/09/06 04:27:57;;;;;;;6.33;3.08;;;;;;;9.58;82.78;99724.82;4006886;87;21074;-83
2022/09/06 04:33:58;;;;;;;9.80;3.60;;;;;;;9.53;83.16;99719.84;3995767;87;21040;-83
2022/09/06 04:40:01;;;;;;;7.03;3.80;;;;;;;9.47;83.31;99715.75;4001218;87;21067;-83
2022/09/06 04:46:05;;;;;;;7.12;3.92;;;;;;;9.47;83.59;99716.34;3989338;87;21070;-84
2022/09/06 04:52:07;;;;;;;5.30;3.55;;;;;;;9.42;83.10;99724.23;3984720;87;21676;-84
2022/09/06 04:58:09;;;;;;;6.83;3.17;;;;;;;9.50;83.73;99729.31;3986667;88;21045;-84
2022/09/06 05:04:10;;;;;;;8.63;3.62;;;;;;;9.59;83.72;99724.47;4000303;87;21055;-84
2022/09/06 05:10:11;;;;;;;8.35;3.70;;;;;;;9.68;84.10;99720.22;4009146;87;21476;-83
2022/09/06 05:16:14;;;;;;;5.65;3.52;;;;;;;9.76;84.52;99726.06;4001043;87;21071;-83
2022/09/06 05:22:16;;;;;;;5.85;3.37;;;;;;;9.81;84.55;99727.17;4018952;87;21088;-84
2022/09/06 05:28:18;;;;;;;8.53;3.67;;;;;;;9.89;84.92;99733.05;4010656;87;21517;-83
2022/09/06 05:34:19;;;;;;;7.12;3.30;;;;;;;10.00;85.13;99728.08;4001164;87;21046;-83
2022/09/06 05:40:21;;;;;;;9.10;3.80;;;;;;;10.16;84.91;99730.27;3993440;87;21095;-83
2022/09/06 05:46:22;;;;;;;8.90;3.60;;;;;;;10.31;84.91;99745.06;3968395;87;21100;-84
2022/09/06 05:52:24;;;;;;;10.98;3.80;;;;;;;10.44;84.60;99748.73;3992122;87;21195;-83
2022/09/06 05:58:25;;;;;;;10.35;4.37;;;;;;;10.62;84.56;99747.18;4016362;87;21625;-84
2022/09/06 06:34:26;;;;;;;7.20;3.55;;;;;;;12.49;82.47;99733.73;4302788;80;26587;-85
2022/09/06 06:40:27;;;;;;;8.45;3.77;;;;;;;12.57;82.29;99736.80;4231910;81;21431;-84
2022/09/06 06:46:43;;;;;;;8.03;3.98;;;;;;;12.70;82.21;99735.39;4215729;82;21061;-84
2022/09/06 06:52:45;;;;;;;7.67;3.40;;;;;;;12.72;81.40;99744.67;4198095;82;21123;-84
2022/09/06 06:58:59;;;;;;;7.90;3.65;;;;;;;12.73;81.24;99747.05;4219371;81;21126;-84
2022/09/06 07:05:13;;;;;;;8.80;3.40;;;;;;;12.94;81.18;99744.58;4248010;80;21972;-84
2022/09/06 07:11:18;;;;;;;6.35;3.85;;;;;;;12.96;80.63;99757.94;4194468;81;21034;-84
2022/09/06 07:17:19;;;;;;;11.53;3.30;;;;;;;13.18;80.51;99752.39;4219045;82;21138;-85
2022/09/06 07:23:39;;;;;;;7.12;3.58;;;;;;;13.50;80.33;99745.91;4233000;81;21939;-85
2022/09/06 07:29:40;;;;;;;6.00;3.55;;;;;;;13.72;79.91;99742.19;4236409;81;21075;-83
2022/09/06 07:35:58;;;;;;;8.65;3.83;;;;;;;13.95;79.57;99746.95;4214534;82;20984;-84
2022/09/06 07:42:15;;;;;;;9.83;4.35;;;;;;;14.21;79.23;99755.05;4214249;82;21067;-85
2022/09/06 07:55:10;;;;;;;7.97;3.70;;;;;;;14.87;78.53;99759.50;4203634;82;21097;-85
2022/09/06 08:01:49;;;;;;;6.33;3.60;;;;;;;15.34;78.48;99753.83;4179880;82;21078;-83
2022/09/06 08:08:11;;;;;;;11.38;3.50;;;;;;;15.92;77.84;99753.05;4215663;81;21654;-85
2022/09/06 08:14:17;;;;;;;7.30;3.98;;;;;;;16.44;77.22;99739.06;4252888;80;21724;-85
2022/09/06 08:20:22;;;;;;;7.70;4.33;;;;;;;16.86;76.37;99731.53;4201910;81;21626;-85
2022/09/06 08:26:50;;;;;;;12.68;3.87;;;;;;;17.17;75.84;99737.55;4234655;81;21095;-85
2022/09/06 08:33:04;;;;;;;8.08;4.08;;;;;;;17.46;75.12;99734.08;4187177;80;21009;-85
2022/09/06 08:39:12;;;;;;;10.98;3.45;;;;;;;17.69;74.22;99731.59;4259960;80;21621;-86
2022/09/06 08:45:20;;;;;;;7.50;3.60;;;;;;;17.79;73.60;99727.95;4263658;80;21079;-85
2022/09/06 09:05:11;;;;;;;7.58;3.80;;;;;;;18.58;69.36;99722.81;4174071;82;21044;-86
2022/09/06 09:11:27;;;;;;;6.87;3.55;;;;;;;18.99;69.71;99719.42;4234718;80;21645;-86
2022/09/06 09:17:47;;;;;;;7.58;3.12;;;;;;;19.49;69.39;99705.14;4220658;82;21016;-83
2022/09/06 09:30:28;;;;;;;7.12;3.55;;;;;;;19.55;63.72;99699.89;4225351;82;21050;-85
2022/09/06 09:36:33;;;;;;;6.10;2.77;;;;;;;19.69;64.65;99701.08;4234336;82;21045;-85
2022/09/06 09:42:55;;;;;;;6.60;2.95;;;;;;;20.40;65.01;99688.27;4246445;80;21058;-84
2022/09/06 09:49:28;;;;;;;7.45;3.45;;;;;;;20.28;62.89;99687.49;4228079;82;21071;-84
2022/09/06 09:55:33;;;;;;;5.83;3.00;;;;;;;19.88;62.88;99687.90;4207894;82;21072;-85
2022/09/06 10:01:40;;;;;;;6.65;2.83;;;;;;;19.75;62.54;99671.63;4217101;81;21019;-84
2022/09/06 10:07:57;;;;;;;6.95;2.95;;;;;;;19.48;61.27;99659.74;4215486;82;21628;-85
2022/09/06 10:20:43;;;;;;;5.42;3.25;;;;;;;19.21;61.18;99643.03;4203828;82;20140;-85
2022/09/06 10:27:16;;;;;;;;;;;;;;;;;;;;;
2022/09/06 10:47:25;;;;;;;5.35;2.22;;;;;;;19.77;60.92;99612.27;4207771;82;21080;-85
2022/09/06 11:00:14;;;;;;;5.28;2.52;;;;;;;19.98;59.88;99630.77;4193317;82;21574;-86
2022/09/06 11:13:46;;;;;;;8.13;2.67;;;;;;;19.97;59.73;99616.70;4271667;80;21182;-86
2022/09/06 11:27:22;;;;;;;4.55;2.30;;;;;;;21.73;59.00;99597.20;4203912;82;21532;-84
2022/09/06 11:33:43;;;;;;;5.05;2.72;;;;;;;22.04;57.49;99584.30;4197850;81;21014;-86
2022/09/06 11:53:17;;;;;;;4.55;2.22;;;;;;;21.97;54.54;99569.97;4193970;81;21080;-86
2022/09/06 11:59:37;;;;;;;4.95;2.27;;;;;;;21.60;54.32;99574.03;4167236;82;20993;-85
2022/09/06 12:06:21;;;;;;;6.37;2.37;;;;;;;21.62;54.72;99570.20;4102472;84;20995;-87
2022/09/06 12:12:51;;;;;;;8.25;2.37;;;;;;;21.59;54.35;99573.87;4228985;82;20996;-86
2022/09/06 12:19:15;;;;;;;8.80;2.65;;;;;;;21.45;53.82;99561.67;4218488;80;21007;-85
2022/09/06 12:25:47;;;;;;;5.92;2.17;;;;;;;21.23;53.81;99548.07;4203335;82;21119;-86
2022/09/06 12:32:05;;;;;;;4.97;2.08;;;;;;;21.06;53.81;99550.65;4190685;82;22568;-86
2022/09/06 12:38:21;;;;;;;5.65;2.20;;;;;;;21.09;52.81;99547.00;4192963;81;21055;-85
2022/09/06 12:44:54;;;;;;;4.17;1.93;;;;;;;21.25;52.95;99542.83;4208921;82;21048;-85
2022/09/06 12:51:19;;;;;;;4.65;2.37;;;;;;;21.32;52.85;99528.75;4181288;82;21029;-83
2022/09/06 13:10:33;;;;;;;4.95;2.37;;;;;;;21.01;52.51;99525.31;4000613;86;21051;-85
2022/09/06 13:16:52;;;;;;;3.87;2.10;;;;;;;20.96;52.76;99526.61;3990442;86;21019;-85
2022/09/06 13:23:22;;;;;;;5.78;2.20;;;;;;;21.12;52.52;99525.86;3993229;87;21095;-86
2022/09/06 13:29:35;;;;;;;6.03;2.35;;;;;;;21.19;52.34;99515.96;3990102;86;21059;-85
2022/09/06 13:36:04;;;;;;;7.45;2.35;;;;;;;21.09;51.99;99512.80;4225313;82;21081;-85
2022/09/06 13:42:31;;;;;;;5.55;2.37;;;;;;;20.89;52.14;99505.09;4177011;81;21067;-84
2022/09/06 13:49:09;;;;;;;4.58;2.67;;;;;;;20.70;51.87;99507.30;4265242;80;21110;-85
2022/09/06 13:55:29;;;;;;;3.87;2.58;;;;;;;20.56;51.24;99495.08;4203459;81;21072;-85
2022/09/06 14:01:35;;;;;;;5.03;2.80;;;;;;;20.46;51.35;99486.34;4214036;81;21091;-85
2022/09/06 14:07:40;;;;;;;5.42;2.65;;;;;;;20.32;51.68;99484.65;4248099;82;21598;-84
2022/09/06 14:13:48;;;;;;;5.28;2.37;;;;;;;20.20;51.72;99491.63;4205268;82;21041;-86
2022/09/06 14:26:50;;;;;;;7.87;2.60;;;;;;;20.29;52.31;99470.81;4188898;82;21052;-87
2022/09/06 14:32:42;;;;;;;10.23;2.70;;;;;;;20.33;52.08;99467.37;4098424;84;21127;-86
2022/09/06 14:38:46;;;;;;;3.92;2.72;;;;;;;20.29;52.83;99455.52;4123805;83;21240;-85
2022/09/06 14:44:58;;;;;;;7.95;2.58;;;;;;;20.32;52.53;99457.45;4118928;83;21595;-85
2022/09/06 14:51:33;;;;;;;5.33;2.60;;;;;;;20.31;52.08;99454.50;4115379;83;21110;-85
2022/09/06 15:04:16;;;;;;;5.45;2.52;;;;;;;20.14;53.07;99460.58;4188058;82;21099;-84
2022/09/06 15:10:19;;;;;;;5.50;2.90;;;;;;;20.13;52.97;99456.21;4219366;81;21414;-86
2022/09/06 15:16:22;;;;;;;5.72;2.75;;;;;;;20.15;53.03;99457.38;4242539;80;21013;-85
2022/09/06 15:22:32;;;;;;;8.28;2.58;;;;;;;20.18;53.14;99454.36;4275395;80;21071;-86
2022/09/06 15:29:49;;;;;;;3.92;2.25;;;;;;;20.13;53.07;99451.48;4279397;80;21642;-85
2022/09/06 15:42:47;;;;;;;7.05;2.80;;;;;;;19.93;53.30;99437.36;4175236;82;21094;-86
2022/09/06 15:49:10;;;;;;;7.65;3.00;;;;;;;19.83;53.08;99436.36;4210137;81;21116;-86
2022/09/06 16:01:38;;;;;;;4.28;2.60;;;;;;;19.70;52.86;99429.09;4212392;82;21100;-86
2022/09/06 16:07:43;;;;;;;4.80;2.67;;;;;;;19.57;52.88;99424.75;4215261;82;21090;-85
2022/09/06 16:13:58;;;;;;;12.03;3.90;;;;;;;19.52;52.83;99429.41;4267480;81;21091;-85
2022/09/06 16:20:10;;;;;;;5.90;2.95;;;;;;;19.44;53.07;99424.39;4272457;80;21017;-85
2022/09/06 16:26:23;;;;;;;11.75;4.42;;;;;;;19.29;53.38;99417.53;4260346;81;21049;-85
2022/09/06 16:32:45;;;;;;;6.53;2.90;;;;;;;19.13;53.53;99418.75;4254667;80;21796;-85
2022/09/06 16:38:57;;;;;;;4.58;2.83;;;;;;;18.94;53.69;99416.09;4019335;86;21083;-85
2022/09/06 16:45:13;;;;;;;4.72;3.22;;;;;;;18.77;53.97;99423.29;3971805;85;21065;-85
2022/09/06 16:58:21;;;;;;;14.28;4.97;;;;;;;18.43;54.37;99415.08;4132060;84;21623;-85
2022/09/06 17:11:31;;;;;;;22.20;7.45;;;;;;;18.08;55.19;99401.06;4075336;85;21112;-85
2022/09/06 17:17:32;;;;;;;15.23;5.72;;;;;;;17.86;55.49;99401.13;4211035;82;21029;-86
2022/09/06 17:30:52;;;;;;;8.35;2.98;;;;;;;17.41;56.73;99401.00;4192160;82;21012;-85
2022/09/06 17:36:53;;;;;;;9.25;3.42;;;;;;;17.21;57.18;99406.93;4268991;80;21028;-85
2022/09/06 17:56:31;;;;;;;7.08;3.10;;;;;;;16.65;58.81;99426.70;4221545;81;21922;-86
2022/09/06 18:09:32;;;;;;;9.08;2.80;;;;;;;16.33;60.18;99433.78;4194004;82;21008;-85
2022/09/06 18:15:42;;;;;;;8.60;3.53;;;;;;;16.19;60.20;99437.99;4195144;82;21122;-86
2022/09/06 18:21:47;;;;;;;6.60;3.05;;;;;;;16.10;60.52;99440.38;4201546;82;21964;-85
2022/09/06 18:27:50;;;;;;;9.40;3.20;;;;;;;16.00;60.75;99440.42;4186116;83;21115;-85
2022/09/06 18:34:08;;;;;;;6.17;4.37;;;;;;;15.87;60.85;99444.21;4182771;81;21094;-85
2022/09/06 18:40:09;;;;;;;14.65;7.47;;;;;;;15.66;62.02;99445.05;4185216;82;21082;-85
2022/09/06 18:46:18;;;;;;;17.98;9.70;;;;;;;15.54;62.28;99455.14;4207008;81;20994;-86
2022/09/06 18:52:21;;;;;;;13.95;6.12;;;;;;;15.44;62.34;99453.17;4194122;83;21139;-85
2022/09/06 18:58:24;;;;;;;12.98;4.95;;;;;;;15.34;62.50;99451.77;4185839;82;21067;-86
2022/09/06 19:04:53;;;;;;;8.03;4.67;;;;;;;15.26;62.61;99446.86;4206740;81;21014;-86
2022/09/06 19:11:58;;;;;;;14.33;4.75;;;;;;;15.20;62.68;99447.65;4212431;81;21063;-85
2022/09/06 19:18:01;;;;;;;9.08;4.58;;;;;;;15.14;62.58;99445.86;4182524;82;21071;-86
2022/09/06 19:30:35;;;;;;;19.05;6.30;;;;;;;14.96;62.39;99432.67;4038168;85;21126;-85
2022/09/06 19:37:22;;;;;;;13.80;5.20;;;;;;;14.93;62.55;99438.17;4041330;85;21019;-85
2022/09/06 19:43:51;;;;;;;11.20;4.65;;;;;;;14.85;62.54;99437.39;4191439;81;21120;-84
2022/09/06 19:50:13;;;;;;;8.53;4.03;;;;;;;14.73;62.39;99432.27;4185930;82;21048;-85
2022/09/06 19:56:21;;;;;;;7.65;3.50;;;;;;;14.65;62.49;99428.50;4191173;83;21083;-85
2022/09/06 20:02:58;;;;;;;8.48;4.05;;;;;;;14.62;62.59;99423.78;4184040;82;21159;-86
2022/09/06 20:09:19;;;;;;;7.45;3.95;;;;;;;14.58;62.77;99429.88;4193417;83;21947;-84
2022/09/06 20:15:38;;;;;;;7.05;3.55;;;;;;;14.47;62.63;99422.95;4178145;83;21008;-85
2022/09/06 20:21:45;;;;;;;5.62;3.33;;;;;;;14.41;62.68;99419.01;4208347;81;21021;-84
2022/09/06 20:28:08;;;;;;;6.95;3.65;;;;;;;14.31;62.79;99421.73;4188938;82;21080;-85
2022/09/06 20:34:24;;;;;;;9.35;3.87;;;;;;;14.23;62.95;99417.36;4188855;83;21028;-85
2022/09/06 20:40:31;;;;;;;15.25;3.12;;;;;;;14.16;63.08;99425.00;4213642;82;21021;-85
2022/09/06 21:00:01;;;;;;;4.92;2.75;;;;;;;13.87;63.33;99430.20;4218617;81;21075;-85
2022/09/06 21:12:55;;;;;;;5.22;2.92;;;;;;;13.65;63.42;99419.67;4215553;82;21044;-85
2022/09/06 21:19:08;;;;;;;7.50;2.67;;;;;;;13.54;63.25;99412.53;4194521;82;21755;-85
2022/09/06 21:25:14;;;;;;;10.45;2.40;;;;;;;13.43;63.28;99419.92;4192867;82;21031;-84
2022/09/06 21:31:34;;;;;;;4.70;2.15;;;;;;;13.33;63.28;99422.80;4275742;80;21946;-84
2022/09/06 21:37:44;;;;;;;5.95;2.50;;;;;;;13.28;63.47;99426.51;4182066;81;21057;-84
2022/09/06 21:44:04;;;;;;;5.58;2.52;;;;;;;13.21;63.50;99427.82;4250493;82;21610;-84
2022/09/06 21:50:06;;;;;;;5.47;2.10;;;;;;;13.10;63.56;99434.62;4196960;82;21018;-84
2022/09/06 21:56:12;;;;;;;6.85;1.92;;;;;;;13.01;63.61;99425.11;4221276;82;21039;-84
2022/09/06 22:02:20;;;;;;;7.53;2.10;;;;;;;12.97;63.69;99414.63;4226980;81;21649;-83
2022/09/06 22:08:32;;;;;;;10.35;2.60;;;;;;;12.89;63.69;99413.79;4261090;81;21503;-84
2022/09/06 22:14:35;;;;;;;5.58;2.37;;;;;;;12.85;63.53;99415.73;4229406;82;21021;-84
2022/09/06 22:20:39;;;;;;;5.35;2.17;;;;;;;12.80;63.83;99407.83;4206561;81;21098;-85
2022/09/06 22:26:54;;;;;;;5.72;2.20;;;;;;;12.74;63.75;99402.48;4253316;80;21057;-85
2022/09/06 22:32:56;;;;;;;5.28;2.00;;;;;;;12.64;63.73;99397.09;4266699;80;21078;-84
2022/09/06 22:45:42;;;;;;;7.72;1.72;;;;;;;12.57;63.98;99388.02;4258137;81;21145;-84
2022/09/06 22:52:00;;;;;;;4.45;2.20;;;;;;;12.54;63.83;99388.16;4190397;82;21496;-85
2022/09/06 22:58:04;;;;;;;4.42;1.45;;;;;;;12.50;63.73;99375.57;4201639;82;21110;-84
2022/09/06 23:04:09;;;;;;;5.42;1.85;;;;;;;12.41;63.75;99381.39;4156336;83;21024;-85
2022/09/06 23:10:51;;;;;;;3.42;1.72;;;;;;;12.35;63.78;99379.36;4221312;82;21605;-84
2022/09/06 23:17:16;;;;;;;3.80;1.70;;;;;;;12.23;63.71;99382.38;4200561;82;21739;-84
2022/09/06 23:30:01;;;;;;;4.20;1.57;;;;;;;12.08;63.89;99392.98;4258811;80;21163;-84
2022/09/06 23:36:31;;;;;;;5.12;1.75;;;;;;;12.05;63.92;99399.22;4208113;82;21111;-84
2022/09/06 23:42:46;;;;;;;2.77;1.57;;;;;;;11.98;63.70;99386.20;4188928;81;21083;-85
2022/09/06 23:48:47;;;;;;;3.58;1.55;;;;;;;11.89;63.65;99377.48;4200469;82;21027;-84
2022/09/06 23:54:49;;;;;;;6.37;2.00;;;;;;;11.76;63.74;99362.42;4193923;81;21072;-84
